createdAt,value
2023-04-29T00:01:59.176Z,10.45
2023-04-29T00:04:26.812Z,11.20
2023-04-29T00:06:53.926Z,10.68
2023-04-29T00:09:21.936Z,9.85
2023-04-29T00:11:50.436Z,10.20
2023-04-29T00:14:17.426Z,10.18
2023-04-29T00:16:47.028Z,10.85
2023-04-29T00:19:13.982Z,9.75
2023-04-29T00:21:41.501Z,10.18
2023-04-29T00:24:10.928Z,10.70
2023-04-29T00:26:37.783Z,9.75
2023-04-29T00:29:04.575Z,9.35
2023-04-29T00:31:32.991Z,10.02
2023-04-29T00:34:00.157Z,9.57
2023-04-29T00:36:27.078Z,10.43
2023-04-29T00:38:53.950Z,10.52
2023-04-29T00:41:21.342Z,9.65
2023-04-29T00:43:48.149Z,10.75
2023-04-29T00:46:15.027Z,9.95
2023-04-29T00:48:42.366Z,10.35
2023-04-29T00:51:09.262Z,10.52
2023-04-29T00:53:36.222Z,10.25
2023-04-29T00:56:03.514Z,11.05
2023-04-29T00:58:33.647Z,10.60
2023-04-29T01:01:01.362Z,10.45
2023-04-29T01:03:32.548Z,10.05
2023-04-29T01:06:37.284Z,10.00
2023-04-29T01:09:10.955Z,11.20
2023-04-29T01:11:51.368Z,11.10
2023-04-29T01:14:18.248Z,10.05
2023-04-29T01:16:49.619Z,10.85
2023-04-29T01:19:26.301Z,11.40
2023-04-29T01:21:53.356Z,11.07
2023-04-29T01:24:20.166Z,10.32
2023-04-29T01:26:56.839Z,10.65
2023-04-29T01:29:40.982Z,11.73
2023-04-29T01:32:14.773Z,11.10
2023-04-29T01:35:05.896Z,11.48
2023-04-29T01:38:00.921Z,11.88
2023-04-29T01:40:34.531Z,13.63
2023-04-29T01:43:03.522Z,10.52
2023-04-29T01:45:32.650Z,11.85
2023-04-29T01:48:00.252Z,11.20
2023-04-29T01:50:27.260Z,10.90
2023-04-29T01:52:54.278Z,11.63
2023-04-29T01:55:23.388Z,11.13
2023-04-29T01:57:50.212Z,10.82
2023-04-29T02:00:17.344Z,10.13
2023-04-29T02:02:44.840Z,9.98
2023-04-29T02:05:12.700Z,10.35
2023-04-29T02:07:40.088Z,11.40
2023-04-29T02:10:07.405Z,10.27
2023-04-29T02:12:34.774Z,11.32
2023-04-29T02:15:01.811Z,10.73
2023-04-29T02:17:28.723Z,10.70
2023-04-29T02:19:55.621Z,10.98
2023-04-29T02:22:22.427Z,10.50
2023-04-29T02:24:49.235Z,10.90
2023-04-29T02:27:16.030Z,10.63
2023-04-29T02:29:42.917Z,10.93
2023-04-29T02:32:10.066Z,10.73
2023-04-29T02:34:36.958Z,10.93
2023-04-29T02:37:04.353Z,11.85
2023-04-29T02:39:31.579Z,11.18
2023-04-29T02:42:01.090Z,11.68
2023-04-29T02:44:31.475Z,11.23
2023-04-29T02:46:58.512Z,11.95
2023-04-29T02:49:25.339Z,11.07
2023-04-29T02:51:52.278Z,11.73
2023-04-29T02:54:19.098Z,12.07
2023-04-29T02:56:46.056Z,11.02
2023-04-29T02:59:12.908Z,10.80
2023-04-29T03:01:40.094Z,10.85
2023-04-29T03:04:07.237Z,10.27
2023-04-29T03:06:34.243Z,10.27
2023-04-29T03:09:01.174Z,10.70
2023-04-29T03:11:29.089Z,10.45
2023-04-29T03:13:56.445Z,10.95
2023-04-29T03:16:23.422Z,10.43
2023-04-29T03:18:50.425Z,10.98
2023-04-29T03:21:17.693Z,10.73
2023-04-29T03:23:44.953Z,10.60
2023-04-29T03:26:12.190Z,10.85
2023-04-29T03:28:39.048Z,10.88
2023-04-29T03:31:05.904Z,9.82
2023-04-29T03:33:35.063Z,12.10
2023-04-29T03:36:02.081Z,10.80
2023-04-29T03:38:28.914Z,11.27
2023-04-29T03:40:55.820Z,10.88
2023-04-29T03:43:22.719Z,11.30
2023-04-29T03:45:49.598Z,10.88
2023-04-29T03:48:16.979Z,11.68
2023-04-29T03:50:44.007Z,11.40
2023-04-29T03:53:11.958Z,11.77
2023-04-29T03:55:38.876Z,11.35
2023-04-29T03:58:05.733Z,10.15
2023-04-29T04:00:32.665Z,11.75
2023-04-29T04:03:05.237Z,10.93
2023-04-29T04:05:32.780Z,12.02
2023-04-29T04:08:00.881Z,10.70
2023-04-29T04:10:28.585Z,10.38
2023-04-29T04:12:55.525Z,11.75
2023-04-29T04:15:22.643Z,11.55
2023-04-29T04:17:49.593Z,11.10
2023-04-29T04:20:16.555Z,11.48
2023-04-29T04:22:46.135Z,11.80
2023-04-29T04:25:13.061Z,11.05
2023-04-29T04:27:39.850Z,11.07
2023-04-29T04:30:07.442Z,11.82
2023-04-29T04:32:36.807Z,11.85
2023-04-29T04:35:03.877Z,11.27
2023-04-29T04:37:30.740Z,12.70
2023-04-29T04:39:57.507Z,11.70
2023-04-29T04:42:24.348Z,10.93
2023-04-29T04:44:53.104Z,11.63
2023-04-29T04:47:19.914Z,11.45
2023-04-29T04:49:46.891Z,11.80
2023-04-29T04:52:13.706Z,11.93
2023-04-29T04:54:40.551Z,11.73
2023-04-29T04:57:07.390Z,11.70
2023-04-29T04:59:34.405Z,11.73
2023-04-29T05:02:01.215Z,11.55
2023-04-29T05:04:28.341Z,11.85
2023-04-29T05:06:55.445Z,10.95
2023-04-29T05:09:23.004Z,11.73
2023-04-29T05:11:49.826Z,11.38
2023-04-29T05:14:17.207Z,11.70
2023-04-29T05:16:46.886Z,11.95
2023-04-29T05:19:13.844Z,11.45
2023-04-29T05:21:40.822Z,11.73
2023-04-29T05:24:07.721Z,11.73
2023-04-29T05:26:34.553Z,11.93
2023-04-29T05:29:01.602Z,11.77
2023-04-29T05:31:28.732Z,12.10
2023-04-29T05:33:55.655Z,12.57
2023-04-29T05:36:22.781Z,12.88
2023-04-29T05:38:49.613Z,12.10
2023-04-29T05:41:16.388Z,12.38
2023-04-29T05:43:43.221Z,12.00
2023-04-29T05:46:10.240Z,11.68
2023-04-29T05:48:37.071Z,13.05
2023-04-29T05:51:03.908Z,12.95
2023-04-29T05:53:31.532Z,12.07
2023-04-29T05:55:58.515Z,11.27
2023-04-29T05:58:28.591Z,13.75
2023-04-29T06:00:55.477Z,11.85
2023-04-29T06:03:22.799Z,11.43
2023-04-29T06:05:50.446Z,13.27
2023-04-29T06:08:19.730Z,12.05
2023-04-29T06:10:46.779Z,12.73
2023-04-29T06:13:13.676Z,12.13
2023-04-29T06:15:40.507Z,13.32
2023-04-29T06:18:07.400Z,12.95
2023-04-29T06:20:36.848Z,11.73
2023-04-29T06:23:05.399Z,13.98
2023-04-29T06:25:34.216Z,11.85
2023-04-29T06:28:01.129Z,11.63
2023-04-29T06:30:28.014Z,11.48
2023-04-29T06:32:54.937Z,12.15
2023-04-29T06:35:22.667Z,12.68
2023-04-29T06:37:49.468Z,12.82
2023-04-29T06:40:16.274Z,12.38
2023-04-29T06:42:43.848Z,10.98
2023-04-29T06:45:11.101Z,16.67
2023-04-29T06:47:40.767Z,16.52
2023-04-29T06:50:07.922Z,14.70
2023-04-29T06:52:34.806Z,22.42
2023-04-29T06:55:01.742Z,14.35
2023-04-29T06:57:28.566Z,14.88
2023-04-29T06:59:57.657Z,13.30
2023-04-29T07:02:24.524Z,12.32
2023-04-29T07:04:52.726Z,13.52
2023-04-29T07:07:19.715Z,14.48
2023-04-29T07:09:46.588Z,13.65
2023-04-29T07:12:13.471Z,13.80
2023-04-29T07:14:40.960Z,12.20
2023-04-29T07:17:11.364Z,13.25
2023-04-29T07:19:41.787Z,12.95
2023-04-29T07:22:08.670Z,13.75
2023-04-29T07:24:37.656Z,12.68
2023-04-29T07:27:04.566Z,11.55
2023-04-29T07:29:31.629Z,13.50
2023-04-29T07:31:58.492Z,12.38
2023-04-29T07:34:25.548Z,12.23
2023-04-29T07:36:52.338Z,12.50
2023-04-29T07:39:19.226Z,12.27
2023-04-29T07:41:46.104Z,12.48
2023-04-29T07:44:12.975Z,12.48
2023-04-29T07:46:39.960Z,12.00
2023-04-29T07:49:07.301Z,12.02
2023-04-29T07:51:37.212Z,20.88
2023-04-29T07:54:04.760Z,17.05
2023-04-29T07:56:31.681Z,10.10
2023-04-29T07:59:00.602Z,12.15
2023-04-29T08:01:28.529Z,17.73
2023-04-29T08:03:55.822Z,12.85
2023-04-29T08:06:22.953Z,11.35
2023-04-29T08:08:49.935Z,11.95
2023-04-29T08:11:20.851Z,10.32
2023-04-29T08:13:50.200Z,10.02
2023-04-29T08:16:17.044Z,10.15
2023-04-29T08:18:43.975Z,10.13
2023-04-29T08:21:13.754Z,10.65
2023-04-29T08:23:41.044Z,9.50
2023-04-29T08:26:07.995Z,10.95
2023-04-29T08:28:34.805Z,12.57
2023-04-29T08:31:01.660Z,11.75
2023-04-29T08:33:28.848Z,10.73
2023-04-29T08:36:00.349Z,10.98
2023-04-29T08:38:28.465Z,10.85
2023-04-29T08:40:56.519Z,10.05
2023-04-29T08:43:23.565Z,10.00
2023-04-29T08:45:50.566Z,11.07
2023-04-29T08:48:20.164Z,10.85
2023-04-29T08:50:47.090Z,11.15
2023-04-29T08:53:15.115Z,10.15
2023-04-29T08:55:44.575Z,11.73
2023-04-29T08:58:12.304Z,10.40
2023-04-29T09:00:40.363Z,10.85
2023-04-29T09:03:27.410Z,11.07
2023-04-29T09:05:56.307Z,10.35
2023-04-29T09:08:24.572Z,10.40
2023-04-29T09:10:54.754Z,9.93
2023-04-29T09:13:29.920Z,9.70
2023-04-29T09:15:57.426Z,9.75
2023-04-29T09:18:46.372Z,11.18
2023-04-29T09:21:21.130Z,9.75
2023-04-29T09:23:50.972Z,10.15
2023-04-29T09:26:17.913Z,12.02
2023-04-29T09:28:45.252Z,10.13
2023-04-29T09:31:12.773Z,10.93
2023-04-29T09:33:54.586Z,11.93
2023-04-29T09:36:41.380Z,12.80
2023-04-29T09:39:24.016Z,10.55
2023-04-29T09:41:55.927Z,10.73
2023-04-29T09:44:27.571Z,10.73
2023-04-29T09:46:57.577Z,10.10
2023-04-29T09:49:27.022Z,10.63
2023-04-29T09:51:55.566Z,9.63
2023-04-29T09:54:33.249Z,10.57
2023-04-29T09:57:10.846Z,11.10
2023-04-29T09:59:40.299Z,9.38
2023-04-29T10:02:27.438Z,10.07
2023-04-29T10:04:57.773Z,9.75
2023-04-29T10:07:27.033Z,10.10
2023-04-29T10:09:53.905Z,10.07
2023-04-29T10:12:21.294Z,9.90
2023-04-29T10:14:58.675Z,10.52
2023-04-29T10:17:36.724Z,10.70
2023-04-29T10:20:08.464Z,11.45
2023-04-29T10:22:51.169Z,9.73
2023-04-29T10:25:20.153Z,10.23
2023-04-29T10:27:49.012Z,10.18
2023-04-29T10:30:17.799Z,11.10
2023-04-29T10:32:51.199Z,10.02
2023-04-29T10:35:23.025Z,10.07
2023-04-29T10:37:50.258Z,10.43
2023-04-29T10:40:41.899Z,12.00
2023-04-29T10:43:08.726Z,11.67
2023-04-29T10:45:36.405Z,10.52
2023-04-29T10:48:06.362Z,11.48
2023-04-29T10:50:49.346Z,11.43
2023-04-29T10:53:20.165Z,9.93
2023-04-29T10:56:06.949Z,11.13
2023-04-29T10:58:37.736Z,11.48
2023-04-29T11:01:05.505Z,10.48
2023-04-29T11:03:55.778Z,11.32
2023-04-29T11:06:25.196Z,11.70
2023-04-29T11:09:21.319Z,10.25
2023-04-29T11:12:05.887Z,11.13
2023-04-29T11:14:38.929Z,10.82
2023-04-29T11:17:10.714Z,10.63
2023-04-29T11:19:49.118Z,10.85
2023-04-29T11:22:21.616Z,11.50
2023-04-29T11:24:56.856Z,10.73
2023-04-29T11:27:26.085Z,12.65
2023-04-29T11:29:58.340Z,11.35
2023-04-29T11:32:27.348Z,10.68
2023-04-29T11:34:54.666Z,10.70
2023-04-29T11:37:27.058Z,10.93
2023-04-29T11:42:28.717Z,9.68
2023-04-29T11:44:57.190Z,13.07
2023-04-29T11:47:31.015Z,10.77
2023-04-29T11:50:09.551Z,11.35
2023-04-29T11:52:38.679Z,9.05
2023-04-29T11:55:06.247Z,10.02
2023-04-29T11:57:35.622Z,10.02
2023-04-29T12:00:02.907Z,10.90
2023-04-29T12:02:33.837Z,10.85
2023-04-29T12:05:05.558Z,10.80
2023-04-29T12:07:32.510Z,12.50
2023-04-29T12:10:00.293Z,12.23
2023-04-29T12:12:34.901Z,11.35
2023-04-29T12:15:03.675Z,10.73
2023-04-29T12:17:30.739Z,11.38
2023-04-29T12:19:57.710Z,11.80
2023-04-29T12:22:34.403Z,11.48
2023-04-29T12:25:04.174Z,12.15
2023-04-29T12:27:32.416Z,11.15
2023-04-29T12:29:59.271Z,12.40
2023-04-29T12:32:26.363Z,11.50
2023-04-29T12:34:53.595Z,12.15
2023-04-29T12:37:23.899Z,11.05
2023-04-29T12:39:51.539Z,12.07
2023-04-29T12:42:18.653Z,11.05
2023-04-29T12:44:49.551Z,10.98
2023-04-29T12:47:17.206Z,11.30
2023-04-29T12:49:46.107Z,11.27
2023-04-29T12:52:14.363Z,10.80
2023-04-29T12:54:43.587Z,11.32
2023-04-29T12:57:11.739Z,11.07
2023-04-29T12:59:39.765Z,10.63
2023-04-29T13:02:06.822Z,10.57
2023-04-29T13:04:33.863Z,10.52
2023-04-29T13:07:01.055Z,10.77
2023-04-29T13:09:31.410Z,10.05
2023-04-29T13:11:59.561Z,9.63
2023-04-29T13:14:27.050Z,8.27
2023-04-29T13:16:54.069Z,8.95
2023-04-29T13:21:52.377Z,9.23
2023-04-29T13:24:21.469Z,9.05
2023-04-29T13:26:51.805Z,8.32
2023-04-29T13:29:19.479Z,9.50
2023-04-29T13:31:46.439Z,9.10
2023-04-29T13:34:13.275Z,8.88
2023-04-29T13:36:40.121Z,9.00
2023-04-29T13:39:07.392Z,9.68
2023-04-29T13:41:35.565Z,10.00
2023-04-29T13:44:03.877Z,10.35
2023-04-29T13:46:32.720Z,10.80
2023-04-29T14:04:01.300Z,9.55
2023-04-29T14:06:28.555Z,9.15
2023-04-29T14:08:55.497Z,8.52
2023-04-29T14:11:22.277Z,10.18
2023-04-29T14:13:50.498Z,10.00
2023-04-29T14:16:20.598Z,9.63
2023-04-29T14:18:47.479Z,9.60
2023-04-29T14:21:14.644Z,10.13
2023-04-29T14:23:41.488Z,9.93
2023-04-29T14:26:23.143Z,9.05
2023-04-29T14:28:58.604Z,9.98
2023-04-29T14:31:40.560Z,9.68
2023-04-29T14:34:07.474Z,9.13
2023-04-29T14:36:34.321Z,8.23
2023-04-29T14:39:01.378Z,9.13
2023-04-29T14:41:28.589Z,9.13
2023-04-29T14:43:55.496Z,9.60
2023-04-29T14:46:22.674Z,8.88
2023-04-29T14:48:49.812Z,11.48
2023-04-29T14:51:16.654Z,10.13
2023-04-29T14:53:43.494Z,10.30
2023-04-29T14:56:12.769Z,11.57
2023-04-29T14:58:39.595Z,10.27
2023-04-29T15:01:06.576Z,9.70
2023-04-29T15:03:33.488Z,8.73
2023-04-29T15:06:03.714Z,9.38
2023-04-29T15:08:31.261Z,9.05
2023-04-29T15:10:58.154Z,8.63
2023-04-29T15:13:27.444Z,11.75
2023-04-29T15:15:55.115Z,8.75
2023-04-29T15:18:26.392Z,10.10
2023-04-29T15:20:53.879Z,10.02
2023-04-29T15:23:20.736Z,9.63
2023-04-29T15:25:50.084Z,9.18
2023-04-29T15:28:17.042Z,9.35
2023-04-29T15:30:43.850Z,13.32
2023-04-29T15:33:10.976Z,8.73
2023-04-29T15:35:37.962Z,8.93
2023-04-29T15:38:07.953Z,8.85
2023-04-29T15:40:34.805Z,7.72
2023-04-29T15:43:01.748Z,8.38
2023-04-29T15:45:28.640Z,7.78
2023-04-29T15:47:55.532Z,8.25
2023-04-29T15:50:22.467Z,7.82
2023-04-29T15:52:52.502Z,8.32
2023-04-29T15:55:19.329Z,7.80
2023-04-29T15:57:46.293Z,8.15
2023-04-29T16:00:13.648Z,8.40
2023-04-29T16:02:40.499Z,8.15
2023-04-29T16:05:08.864Z,7.85
2023-04-29T16:07:36.835Z,8.82
2023-04-29T16:10:04.020Z,8.52
2023-04-29T16:12:31.523Z,7.20
2023-04-29T16:14:58.375Z,8.30
2023-04-29T16:17:25.730Z,8.43
2023-04-29T16:19:58.205Z,8.05
2023-04-29T16:22:25.005Z,8.70
2023-04-29T16:24:51.883Z,8.32
2023-04-29T16:27:18.920Z,8.20
2023-04-29T16:29:45.849Z,8.82
2023-04-29T16:32:12.727Z,9.18
2023-04-29T16:34:39.692Z,8.25
2023-04-29T16:37:12.356Z,8.23
2023-04-29T16:39:41.066Z,7.72
2023-04-29T16:42:08.169Z,7.80
2023-04-29T16:44:35.128Z,8.10
2023-04-29T16:47:03.076Z,8.25
2023-04-29T16:49:31.295Z,8.90
2023-04-29T16:52:00.532Z,10.38
2023-04-29T16:54:27.889Z,11.77
2023-04-29T16:56:54.722Z,10.75
2023-04-29T16:59:21.559Z,10.70
2023-04-29T17:01:48.513Z,9.98
2023-04-29T17:04:15.539Z,9.65
2023-04-29T17:06:43.042Z,10.48
2023-04-29T17:09:09.889Z,11.30
2023-04-29T17:11:36.697Z,11.05
2023-04-29T17:14:03.613Z,11.95
2023-04-29T17:16:33.253Z,11.68
2023-04-29T17:19:00.163Z,12.55
2023-04-29T17:21:32.417Z,14.52
2023-04-29T17:24:01.376Z,13.90
2023-04-29T17:26:30.760Z,15.20
2023-04-29T17:28:58.992Z,15.35
2023-04-29T17:31:33.849Z,15.32
2023-04-29T17:34:08.286Z,16.23
2023-04-29T17:36:35.058Z,17.25
2023-04-29T17:39:01.884Z,16.40
2023-04-29T17:41:28.745Z,17.05
2023-04-29T17:43:55.633Z,16.20
2023-04-29T17:46:22.597Z,16.15
2023-04-29T17:48:49.546Z,16.27
2023-04-29T17:51:16.363Z,15.20
2023-04-29T17:53:43.304Z,15.75
2023-04-29T17:56:10.112Z,17.13
2023-04-29T17:58:36.905Z,16.35
2023-04-29T18:01:05.633Z,16.88
2023-04-29T18:03:32.611Z,15.88
2023-04-29T18:05:59.493Z,14.80
2023-04-29T18:08:26.587Z,15.32
2023-04-29T18:10:53.573Z,14.80
2023-04-29T18:13:20.807Z,14.43
2023-04-29T18:15:47.847Z,14.20
2023-04-29T18:18:15.446Z,13.80
2023-04-29T18:20:45.521Z,14.18
2023-04-29T18:23:12.736Z,13.23
2023-04-29T18:25:39.997Z,14.57
2023-04-29T18:28:23.498Z,14.07
2023-04-29T18:30:52.322Z,14.45
2023-04-29T18:33:21.496Z,15.38
2023-04-29T18:35:48.353Z,14.40
2023-04-29T18:38:17.567Z,13.98
2023-04-29T18:40:44.655Z,14.48
2023-04-29T18:43:12.105Z,14.80
2023-04-29T18:45:39.079Z,14.13
2023-04-29T18:48:07.011Z,14.15
2023-04-29T18:50:34.126Z,14.38
2023-04-29T18:53:01.398Z,14.02
2023-04-29T18:55:28.263Z,14.40
2023-04-29T18:57:55.102Z,13.43
2023-04-29T19:00:22.227Z,13.25
2023-04-29T19:02:49.401Z,13.40
2023-04-29T19:05:16.750Z,12.20
2023-04-29T19:07:43.915Z,13.82
2023-04-29T19:10:11.328Z,13.93
2023-04-29T19:12:38.200Z,13.57
2023-04-29T19:15:08.207Z,13.27
2023-04-29T19:17:35.190Z,14.13
2023-04-29T19:20:02.237Z,14.38
2023-04-29T19:22:29.311Z,14.27
2023-04-29T19:24:56.258Z,14.07
2023-04-29T19:27:23.911Z,13.85
2023-04-29T19:29:51.257Z,13.82
2023-04-29T19:32:20.248Z,13.75
2023-04-29T19:34:47.281Z,12.98
2023-04-29T19:37:14.670Z,13.63
2023-04-29T19:39:41.532Z,12.98
2023-04-29T19:42:08.428Z,13.32
2023-04-29T19:44:35.383Z,12.90
2023-04-29T19:47:02.316Z,13.90
2023-04-29T19:49:29.147Z,13.23
2023-04-29T19:51:56.120Z,12.73
2023-04-29T19:54:25.109Z,12.70
2023-04-29T19:56:51.943Z,12.18
2023-04-29T19:59:18.888Z,12.82
2023-04-29T20:01:45.940Z,12.02
2023-04-29T20:04:12.997Z,11.98
2023-04-29T20:06:40.180Z,12.13
2023-04-29T20:09:09.182Z,11.93
2023-04-29T20:11:36.287Z,11.23
2023-04-29T20:14:05.358Z,11.45
2023-04-29T20:16:32.607Z,10.98
2023-04-29T20:18:59.424Z,10.43
2023-04-29T20:21:26.258Z,9.90
2023-04-29T20:23:53.309Z,10.85
2023-04-29T20:26:20.232Z,10.38
2023-04-29T20:28:47.589Z,10.15
2023-04-29T20:31:14.520Z,10.07
2023-04-29T20:33:42.018Z,9.48
2023-04-29T20:36:08.949Z,10.25
2023-04-29T20:38:36.170Z,9.35
2023-04-29T20:41:03.578Z,9.77
2023-04-29T20:43:30.447Z,8.82
2023-04-29T20:46:00.723Z,9.38
2023-04-29T20:48:28.398Z,8.85
2023-04-29T20:50:55.591Z,9.20
2023-04-29T20:53:22.445Z,8.75
2023-04-29T20:55:51.412Z,8.20
2023-04-29T20:58:18.335Z,7.72
2023-04-29T21:00:45.285Z,8.20
2023-04-29T21:03:12.106Z,7.90
2023-04-29T21:05:38.954Z,8.35
2023-04-29T21:08:08.516Z,7.40
2023-04-29T21:10:35.683Z,7.10
2023-04-29T21:13:02.609Z,7.22
2023-04-29T21:15:29.658Z,7.03
2023-04-29T21:17:56.877Z,7.43
2023-04-29T21:20:23.921Z,7.63
2023-04-29T21:22:50.819Z,7.00
2023-04-29T21:25:17.903Z,8.00
2023-04-29T21:27:44.818Z,7.97
2023-04-29T21:30:14.755Z,7.47
2023-04-29T21:32:41.650Z,7.35
2023-04-29T21:35:08.922Z,7.20
2023-04-29T21:37:35.863Z,7.05
2023-04-29T21:40:04.356Z,7.55
2023-04-29T21:42:34.791Z,7.20
2023-04-29T21:45:02.130Z,7.28
2023-04-29T21:47:30.110Z,7.38
2023-04-29T21:49:57.567Z,6.75
2023-04-29T21:52:27.115Z,7.20
2023-04-29T21:54:53.896Z,7.47
2023-04-29T21:57:28.932Z,5.97
2023-04-29T22:00:01.277Z,6.60
2023-04-29T22:02:38.081Z,7.15
2023-04-29T22:05:05.328Z,7.15
2023-04-29T22:07:32.199Z,7.75
2023-04-29T22:09:59.070Z,7.20
2023-04-29T22:12:25.968Z,7.07
2023-04-29T22:14:52.768Z,7.88
2023-04-29T22:17:19.575Z,7.25
2023-04-29T22:19:46.490Z,6.65
2023-04-29T22:22:15.525Z,6.82
2023-04-29T22:24:42.318Z,7.45
2023-04-29T22:27:09.146Z,7.10
2023-04-29T22:29:36.503Z,7.10
2023-04-29T22:32:03.557Z,7.43
2023-04-29T22:34:30.505Z,6.47
2023-04-29T22:36:58.161Z,6.70
2023-04-29T22:39:25.030Z,6.78
2023-04-29T22:41:51.928Z,6.53
2023-04-29T22:44:18.938Z,6.90
2023-04-29T22:46:46.104Z,7.18
2023-04-29T22:49:13.584Z,6.93
2023-04-29T22:51:41.472Z,7.43
2023-04-29T22:54:08.630Z,7.55
2023-04-29T22:56:35.739Z,7.25
2023-04-29T22:59:06.231Z,6.85
2023-04-29T23:01:33.154Z,6.53
2023-04-29T23:04:00.103Z,6.85
2023-04-29T23:06:27.612Z,6.55
2023-04-29T23:08:54.671Z,7.32
2023-04-29T23:11:22.165Z,6.90
2023-04-29T23:13:49.021Z,6.30
2023-04-29T23:16:15.950Z,7.07
2023-04-29T23:18:42.776Z,6.82
2023-04-29T23:21:09.646Z,6.97
2023-04-29T23:23:36.465Z,6.40
2023-04-29T23:26:03.246Z,6.90
2023-04-29T23:28:30.046Z,7.20
2023-04-29T23:30:59.177Z,7.90
2023-04-29T23:33:26.133Z,7.82
2023-04-29T23:35:53.692Z,8.38
2023-04-29T23:38:20.541Z,8.30
2023-04-29T23:40:47.517Z,8.40
2023-04-29T23:43:17.277Z,7.53
2023-04-29T23:45:47.443Z,7.63
2023-04-29T23:48:16.087Z,9.75
2023-04-29T23:50:42.983Z,8.73
2023-04-29T23:53:09.968Z,8.00
2023-04-29T23:55:36.793Z,8.52
2023-04-29T23:58:03.672Z,8.48
